DLH743 EDDF-EGKK
Flight info
| Callsign | DLH743 |
|---|---|
| Flight time | 1h 9m |
| Altitude | 36000 |
| Route | OBOKA3D/07C OBOKA Z29 TORNU DCT VICOT DCT GALSO Q63 ARREK Y4 TEBRA |
| Aircraft | A339/H-SADE1E2E3GHIJ3J5M1P2RWXY/LB2D1 |
Departure
| Time | 2026-04-14 16:16 |
|---|---|
| Airport | Frankfurt Main Airport (EDDF) |
Arrival
| Time | 2026-04-14 17:25 |
|---|---|
| Airport | London Gatwick Airport (EGKK) |
| Time | Latitude | Longitude | Altitude | Speed | Heading |
|---|---|---|---|---|---|
| 2026-04-14 15:28 | 50.04728 | 8.56274 | 351 ft | 0 kts | 339° |
| 2026-04-14 15:51 | 50.04708 | 8.56285 | 361 ft | 3 kts | 339° |
| 2026-04-14 15:51 | 50.04683 | 8.56299 | 359 ft | 3 kts | 339° |
| 2026-04-14 15:52 | 50.04662 | 8.56311 | 361 ft | 4 kts | 317° |
| 2026-04-14 15:52 | 50.04647 | 8.56331 | 360 ft | 4 kts | 270° |
| 2026-04-14 15:52 | 50.04651 | 8.56370 | 361 ft | 4 kts | 249° |
| 2026-04-14 15:52 | 50.04655 | 8.56385 | 356 ft | 0 kts | 249° |
| 2026-04-14 15:59 | 50.04653 | 8.56379 | 351 ft | 3 kts | 249° |
| 2026-04-14 15:59 | 50.04629 | 8.56277 | 360 ft | 16 kts | 249° |
| 2026-04-14 15:59 | 50.04585 | 8.56099 | 359 ft | 19 kts | 249° |
| 2026-04-14 15:59 | 50.04528 | 8.55959 | 360 ft | 14 kts | 209° |
| 2026-04-14 16:00 | 50.04436 | 8.55916 | 354 ft | 16 kts | 194° |
| 2026-04-14 16:02 | 50.04402 | 8.55911 | 358 ft | 14 kts | 183° |
| 2026-04-14 16:02 | 50.04308 | 8.55949 | 356 ft | 14 kts | 160° |
| 2026-04-14 16:03 | 50.04235 | 8.55912 | 358 ft | 11 kts | 233° |
| 2026-04-14 16:03 | 50.04203 | 8.55794 | 354 ft | 13 kts | 248° |
| 2026-04-14 16:03 | 50.04169 | 8.55652 | 356 ft | 15 kts | 249° |
| 2026-04-14 16:03 | 50.04131 | 8.55492 | 354 ft | 14 kts | 250° |
| 2026-04-14 16:04 | 50.04118 | 8.55435 | 355 ft | 0 kts | 250° |
| 2026-04-14 16:04 | 50.04112 | 8.55427 | 355 ft | 5 kts | 236° |
| 2026-04-14 16:04 | 50.04040 | 8.55427 | 354 ft | 13 kts | 163° |
| 2026-04-14 16:04 | 50.04027 | 8.55434 | 357 ft | 0 kts | 161° |
| 2026-04-14 16:05 | 50.04017 | 8.55440 | 356 ft | 0 kts | 160° |
| 2026-04-14 16:06 | 50.03990 | 8.55460 | 357 ft | 12 kts | 157° |
| 2026-04-14 16:06 | 50.03913 | 8.55408 | 354 ft | 15 kts | 247° |
| 2026-04-14 16:06 | 50.03868 | 8.55194 | 360 ft | 28 kts | 250° |
| 2026-04-14 16:06 | 50.03808 | 8.54943 | 360 ft | 24 kts | 249° |
| 2026-04-14 16:07 | 50.03761 | 8.54746 | 358 ft | 20 kts | 249° |
| 2026-04-14 16:07 | 50.03711 | 8.54536 | 357 ft | 21 kts | 250° |
| 2026-04-14 16:07 | 50.03660 | 8.54343 | 358 ft | 12 kts | 234° |
| 2026-04-14 16:07 | 50.03650 | 8.54328 | 360 ft | 3 kts | 226° |
| 2026-04-14 16:08 | 50.03607 | 8.54311 | 360 ft | 0 kts | 164° |
| 2026-04-14 16:08 | 50.03590 | 8.54321 | 360 ft | 0 kts | 160° |
| 2026-04-14 16:14 | 50.03521 | 8.54360 | 357 ft | 16 kts | 160° |
| 2026-04-14 16:14 | 50.03487 | 8.54421 | 360 ft | 1 kts | 96° |
| 2026-04-14 16:14 | 50.03495 | 8.54445 | 359 ft | 0 kts | 65° |
| 2026-04-14 16:15 | 50.03499 | 8.54460 | 361 ft | 0 kts | 67° |
| 2026-04-14 16:15 | 50.03595 | 8.54853 | 357 ft | 88 kts | 69° |
| 2026-04-14 16:16 | 50.03915 | 8.56178 | 372 ft | 168 kts | 68° |
| 2026-04-14 16:16 | 50.04321 | 8.57933 | 1064 ft | 181 kts | 70° |
| 2026-04-14 16:16 | 50.04741 | 8.59835 | 1974 ft | 188 kts | 69° |
| 2026-04-14 16:16 | 50.05161 | 8.61787 | 2909 ft | 193 kts | 70° |
| 2026-04-14 16:17 | 50.05574 | 8.63805 | 3844 ft | 200 kts | 70° |
| 2026-04-14 16:17 | 50.06056 | 8.65946 | 4503 ft | 218 kts | 68° |
| 2026-04-14 16:17 | 50.06596 | 8.68221 | 4659 ft | 226 kts | 68° |
| 2026-04-14 16:17 | 50.07245 | 8.70436 | 4729 ft | 224 kts | 53° |
| 2026-04-14 16:18 | 50.08423 | 8.71972 | 4869 ft | 223 kts | 25° |
| 2026-04-14 16:18 | 50.09900 | 8.72906 | 4984 ft | 245 kts | 21° |
| 2026-04-14 16:18 | 50.11544 | 8.73949 | 4998 ft | 255 kts | 22° |
| 2026-04-14 16:18 | 50.13156 | 8.75008 | 4998 ft | 254 kts | 22° |
| 2026-04-14 16:19 | 50.14784 | 8.76101 | 5000 ft | 255 kts | 22° |
| 2026-04-14 16:19 | 50.16414 | 8.77207 | 4999 ft | 256 kts | 22° |
| 2026-04-14 16:19 | 50.18042 | 8.78315 | 4989 ft | 256 kts | 22° |
| 2026-04-14 16:19 | 50.19696 | 8.79440 | 5401 ft | 260 kts | 22° |
| 2026-04-14 16:20 | 50.21340 | 8.80558 | 6370 ft | 257 kts | 23° |
| 2026-04-14 16:20 | 50.22977 | 8.81664 | 7270 ft | 256 kts | 22° |
| 2026-04-14 16:20 | 50.24705 | 8.82597 | 7780 ft | 269 kts | 7° |
| 2026-04-14 16:20 | 50.26577 | 8.82352 | 8516 ft | 274 kts | 341° |
| 2026-04-14 16:21 | 50.28221 | 8.80858 | 9256 ft | 278 kts | 316° |
| 2026-04-14 16:21 | 50.29323 | 8.78369 | 9988 ft | 282 kts | 290° |
| 2026-04-14 16:21 | 50.29943 | 8.75439 | 10587 ft | 291 kts | 285° |
| 2026-04-14 16:21 | 50.30520 | 8.72286 | 10832 ft | 313 kts | 284° |
| 2026-04-14 16:22 | 50.31163 | 8.68910 | 11143 ft | 329 kts | 286° |
| 2026-04-14 16:22 | 50.31867 | 8.65471 | 11778 ft | 335 kts | 287° |
| 2026-04-14 16:22 | 50.32609 | 8.61998 | 12474 ft | 338 kts | 288° |
| 2026-04-14 16:22 | 50.33363 | 8.58524 | 12832 ft | 342 kts | 289° |
| 2026-04-14 16:23 | 50.34131 | 8.54998 | 12951 ft | 341 kts | 289° |
| 2026-04-14 16:23 | 50.34907 | 8.51460 | 13051 ft | 346 kts | 289° |
| 2026-04-14 16:23 | 50.35686 | 8.47897 | 13169 ft | 345 kts | 289° |
| 2026-04-14 16:23 | 50.36460 | 8.44337 | 13186 ft | 345 kts | 289° |
| 2026-04-14 16:24 | 50.37214 | 8.40848 | 13186 ft | 345 kts | 289° |
| 2026-04-14 16:24 | 50.37677 | 8.37189 | 13187 ft | 345 kts | 274° |
| 2026-04-14 16:24 | 50.37696 | 8.36289 | 13191 ft | 346 kts | 270° |
| 2026-04-14 16:24 | 50.37680 | 8.35404 | 13192 ft | 347 kts | 267° |
| 2026-04-14 16:25 | 50.37559 | 8.33754 | 13180 ft | 347 kts | 261° |
| 2026-04-14 16:25 | 50.36890 | 8.30101 | 13214 ft | 353 kts | 252° |
| 2026-04-14 16:25 | 50.36123 | 8.26425 | 13802 ft | 356 kts | 253° |
| 2026-04-14 16:25 | 50.35368 | 8.22722 | 14454 ft | 359 kts | 253° |
| 2026-04-14 16:26 | 50.34614 | 8.18979 | 15083 ft | 361 kts | 253° |
| 2026-04-14 16:26 | 50.33851 | 8.15170 | 15758 ft | 363 kts | 254° |
| 2026-04-14 16:26 | 50.33095 | 8.11390 | 16403 ft | 365 kts | 253° |
| 2026-04-14 16:26 | 50.32343 | 8.07627 | 17038 ft | 368 kts | 253° |
| 2026-04-14 16:27 | 50.31573 | 8.03787 | 17668 ft | 370 kts | 253° |
| 2026-04-14 16:27 | 50.30796 | 7.99930 | 18301 ft | 373 kts | 253° |
| 2026-04-14 16:27 | 50.30017 | 7.96053 | 18871 ft | 375 kts | 255° |
| 2026-04-14 16:27 | 50.29625 | 7.92021 | 19364 ft | 376 kts | 271° |
| 2026-04-14 16:28 | 50.29985 | 7.87973 | 19922 ft | 377 kts | 287° |
| 2026-04-14 16:28 | 50.30991 | 7.84181 | 20474 ft | 379 kts | 296° |
| 2026-04-14 16:28 | 50.32115 | 7.80426 | 20825 ft | 382 kts | 296° |
| 2026-04-14 16:28 | 50.33225 | 7.76659 | 20912 ft | 381 kts | 295° |
| 2026-04-14 16:29 | 50.34332 | 7.72858 | 21159 ft | 385 kts | 295° |
| 2026-04-14 16:29 | 50.35597 | 7.69183 | 21771 ft | 384 kts | 306° |
| 2026-04-14 16:29 | 50.37398 | 7.66172 | 22371 ft | 385 kts | 321° |
| 2026-04-14 16:29 | 50.39717 | 7.63963 | 22937 ft | 388 kts | 336° |
| 2026-04-14 16:30 | 50.42179 | 7.62321 | 23468 ft | 391 kts | 336° |
| 2026-04-14 16:30 | 50.44697 | 7.60626 | 24007 ft | 394 kts | 336° |
| 2026-04-14 16:30 | 50.47211 | 7.58910 | 24546 ft | 395 kts | 336° |
| 2026-04-14 16:30 | 50.49733 | 7.57176 | 25059 ft | 396 kts | 336° |
| 2026-04-14 16:31 | 50.52261 | 7.55431 | 25575 ft | 398 kts | 336° |
| 2026-04-14 16:31 | 50.54795 | 7.53663 | 26074 ft | 400 kts | 335° |
| 2026-04-14 16:31 | 50.57239 | 7.51551 | 26559 ft | 402 kts | 328° |
| 2026-04-14 16:31 | 50.59578 | 7.49117 | 27051 ft | 404 kts | 327° |
| 2026-04-14 16:32 | 50.61934 | 7.46691 | 27530 ft | 406 kts | 327° |
| 2026-04-14 16:32 | 50.64298 | 7.44272 | 28149 ft | 404 kts | 328° |
| 2026-04-14 16:32 | 50.66656 | 7.41861 | 28637 ft | 406 kts | 328° |
| 2026-04-14 16:32 | 50.69034 | 7.39425 | 29051 ft | 408 kts | 328° |
| 2026-04-14 16:33 | 50.71407 | 7.36943 | 29496 ft | 411 kts | 325° |
| 2026-04-14 16:33 | 50.73572 | 7.33977 | 29918 ft | 414 kts | 316° |
| 2026-04-14 16:33 | 50.75421 | 7.30452 | 30350 ft | 419 kts | 307° |
| 2026-04-14 16:33 | 50.76910 | 7.26456 | 30741 ft | 424 kts | 300° |
| 2026-04-14 16:34 | 50.78240 | 7.22282 | 31120 ft | 426 kts | 300° |
| 2026-04-14 16:34 | 50.79577 | 7.18162 | 31510 ft | 427 kts | 300° |
| 2026-04-14 16:34 | 50.80941 | 7.13976 | 31889 ft | 429 kts | 300° |
| 2026-04-14 16:34 | 50.82311 | 7.09768 | 32258 ft | 431 kts | 300° |
| 2026-04-14 16:35 | 50.83684 | 7.05535 | 32624 ft | 433 kts | 300° |
| 2026-04-14 16:35 | 50.85059 | 7.01283 | 33027 ft | 432 kts | 300° |
| 2026-04-14 16:35 | 50.86428 | 6.97042 | 33305 ft | 434 kts | 300° |
| 2026-04-14 16:35 | 50.87801 | 6.92780 | 33516 ft | 436 kts | 300° |
| 2026-04-14 16:36 | 50.89201 | 6.88432 | 33724 ft | 437 kts | 300° |
| 2026-04-14 16:36 | 50.90557 | 6.84210 | 33974 ft | 437 kts | 300° |
| 2026-04-14 16:36 | 50.91933 | 6.79919 | 34234 ft | 436 kts | 300° |
| 2026-04-14 16:36 | 50.93303 | 6.75638 | 34439 ft | 436 kts | 300° |
| 2026-04-14 16:37 | 50.94665 | 6.71374 | 34618 ft | 436 kts | 300° |
| 2026-04-14 16:37 | 50.96046 | 6.67048 | 34784 ft | 437 kts | 300° |
| 2026-04-14 16:37 | 50.97418 | 6.62739 | 34986 ft | 438 kts | 300° |
| 2026-04-14 16:37 | 50.98788 | 6.58427 | 35170 ft | 437 kts | 300° |
| 2026-04-14 16:38 | 51.00151 | 6.54134 | 35418 ft | 436 kts | 300° |
| 2026-04-14 16:38 | 51.01515 | 6.49827 | 35590 ft | 437 kts | 299° |
| 2026-04-14 16:38 | 51.02882 | 6.45509 | 35765 ft | 437 kts | 299° |
| 2026-04-14 16:38 | 51.04245 | 6.41192 | 35951 ft | 438 kts | 299° |
| 2026-04-14 16:39 | 51.05625 | 6.36814 | 36127 ft | 438 kts | 299° |
| 2026-04-14 16:39 | 51.06958 | 6.32578 | 36310 ft | 439 kts | 299° |
| 2026-04-14 16:39 | 51.08327 | 6.28218 | 36485 ft | 439 kts | 299° |
| 2026-04-14 16:39 | 51.09693 | 6.23862 | 36668 ft | 439 kts | 299° |
| 2026-04-14 16:40 | 51.11057 | 6.19504 | 36839 ft | 440 kts | 298° |
| 2026-04-14 16:40 | 51.12422 | 6.15134 | 37056 ft | 439 kts | 298° |
| 2026-04-14 16:40 | 51.13681 | 6.10703 | 37329 ft | 438 kts | 294° |
| 2026-04-14 16:40 | 51.14662 | 6.06096 | 37503 ft | 441 kts | 289° |
| 2026-04-14 16:41 | 51.15419 | 6.01358 | 37669 ft | 442 kts | 287° |
| 2026-04-14 16:41 | 51.16181 | 5.96614 | 37853 ft | 442 kts | 287° |
| 2026-04-14 16:41 | 51.16944 | 5.91929 | 38023 ft | 442 kts | 287° |
| 2026-04-14 16:41 | 51.17719 | 5.87177 | 38194 ft | 443 kts | 287° |
| 2026-04-14 16:42 | 51.18488 | 5.82435 | 38207 ft | 442 kts | 287° |
| 2026-04-14 16:42 | 51.20121 | 5.73006 | 38199 ft | 439 kts | 288° |
| 2026-04-14 16:43 | 51.21775 | 5.63686 | 38201 ft | 436 kts | 288° |
| 2026-04-14 16:43 | 51.23406 | 5.54349 | 38198 ft | 437 kts | 288° |
| 2026-04-14 16:44 | 51.25023 | 5.44994 | 38197 ft | 437 kts | 288° |
| 2026-04-14 16:44 | 51.26630 | 5.35636 | 38191 ft | 437 kts | 288° |
| 2026-04-14 16:45 | 51.29015 | 5.21649 | 38199 ft | 435 kts | 288° |
| 2026-04-14 16:45 | 51.30587 | 5.12369 | 38195 ft | 433 kts | 288° |
| 2026-04-14 16:46 | 51.32147 | 5.03126 | 38196 ft | 433 kts | 288° |
| 2026-04-14 16:46 | 51.33708 | 4.93818 | 38202 ft | 433 kts | 288° |
| 2026-04-14 16:47 | 51.35264 | 4.84493 | 38204 ft | 433 kts | 288° |
| 2026-04-14 16:47 | 51.36804 | 4.75180 | 38190 ft | 426 kts | 290° |
| 2026-04-14 16:48 | 51.37531 | 4.70722 | 38198 ft | 413 kts | 290° |
| 2026-04-14 16:48 | 51.38262 | 4.66281 | 38187 ft | 413 kts | 290° |
| 2026-04-14 16:48 | 51.39746 | 4.57303 | 38189 ft | 418 kts | 290° |
| 2026-04-14 16:49 | 51.41216 | 4.48311 | 38181 ft | 417 kts | 290° |
| 2026-04-14 16:49 | 51.42669 | 4.39361 | 38184 ft | 417 kts | 290° |
| 2026-04-14 16:50 | 51.44122 | 4.30366 | 38182 ft | 417 kts | 290° |
| 2026-04-14 16:50 | 51.45570 | 4.21355 | 38187 ft | 417 kts | 290° |
| 2026-04-14 16:51 | 51.47010 | 4.12339 | 38184 ft | 417 kts | 290° |
| 2026-04-14 16:51 | 51.48680 | 4.03477 | 38183 ft | 412 kts | 296° |
| 2026-04-14 16:52 | 51.51035 | 3.95203 | 38199 ft | 410 kts | 299° |
| 2026-04-14 16:52 | 51.53442 | 3.86902 | 38178 ft | 410 kts | 299° |
| 2026-04-14 16:53 | 51.55822 | 3.78623 | 38180 ft | 403 kts | 299° |
| 2026-04-14 16:53 | 51.58174 | 3.70437 | 38183 ft | 404 kts | 299° |
| 2026-04-14 16:54 | 51.60534 | 3.62202 | 38188 ft | 404 kts | 299° |
| 2026-04-14 16:54 | 51.62880 | 3.53985 | 38185 ft | 404 kts | 299° |
| 2026-04-14 16:55 | 51.65208 | 3.45799 | 38189 ft | 404 kts | 298° |
| 2026-04-14 16:55 | 51.67545 | 3.37556 | 38161 ft | 404 kts | 298° |
| 2026-04-14 16:56 | 51.69868 | 3.29334 | 38192 ft | 402 kts | 299° |
| 2026-04-14 16:56 | 51.71632 | 3.22361 | 38190 ft | 407 kts | 291° |
| 2026-04-14 16:57 | 51.72562 | 3.13256 | 38187 ft | 417 kts | 279° |
| 2026-04-14 16:57 | 51.72514 | 3.08548 | 38012 ft | 424 kts | 273° |
| 2026-04-14 16:57 | 51.72128 | 3.03785 | 37755 ft | 428 kts | 269° |
| 2026-04-14 16:58 | 51.71701 | 2.99031 | 37471 ft | 429 kts | 270° |
| 2026-04-14 16:58 | 51.71288 | 2.94267 | 37202 ft | 430 kts | 270° |
| 2026-04-14 16:58 | 51.70876 | 2.89489 | 36918 ft | 431 kts | 270° |
| 2026-04-14 16:58 | 51.70466 | 2.84758 | 36661 ft | 432 kts | 269° |
| 2026-04-14 16:59 | 51.70043 | 2.79950 | 36402 ft | 433 kts | 269° |
| 2026-04-14 16:59 | 51.69616 | 2.75136 | 36147 ft | 434 kts | 269° |
| 2026-04-14 16:59 | 51.69187 | 2.70317 | 35890 ft | 435 kts | 269° |
| 2026-04-14 16:59 | 51.68753 | 2.65475 | 35644 ft | 436 kts | 269° |
| 2026-04-14 17:00 | 51.68319 | 2.60637 | 35393 ft | 437 kts | 269° |
| 2026-04-14 17:00 | 51.67883 | 2.55779 | 35148 ft | 437 kts | 269° |
| 2026-04-14 17:00 | 51.67444 | 2.50915 | 34903 ft | 438 kts | 269° |
| 2026-04-14 17:00 | 51.67008 | 2.46108 | 34666 ft | 439 kts | 269° |
| 2026-04-14 17:01 | 51.66562 | 2.41238 | 34410 ft | 440 kts | 269° |
| 2026-04-14 17:01 | 51.66117 | 2.36368 | 34172 ft | 439 kts | 268° |
| 2026-04-14 17:01 | 51.65667 | 2.31498 | 33901 ft | 440 kts | 268° |
| 2026-04-14 17:01 | 51.65215 | 2.26622 | 33609 ft | 441 kts | 268° |
| 2026-04-14 17:02 | 51.64759 | 2.21728 | 32904 ft | 442 kts | 268° |
| 2026-04-14 17:02 | 51.64300 | 2.16819 | 32056 ft | 444 kts | 267° |
| 2026-04-14 17:02 | 51.63838 | 2.11897 | 31487 ft | 445 kts | 267° |
| 2026-04-14 17:02 | 51.63376 | 2.06973 | 30964 ft | 444 kts | 267° |
| 2026-04-14 17:03 | 51.62919 | 2.02070 | 30463 ft | 442 kts | 267° |
| 2026-04-14 17:03 | 51.62466 | 1.97193 | 29662 ft | 441 kts | 266° |
| 2026-04-14 17:03 | 51.62091 | 1.92276 | 28322 ft | 446 kts | 268° |
| 2026-04-14 17:03 | 51.61424 | 1.87371 | 27271 ft | 452 kts | 256° |
| 2026-04-14 17:04 | 51.60131 | 1.82767 | 26507 ft | 452 kts | 245° |
| 2026-04-14 17:04 | 51.58387 | 1.78580 | 25806 ft | 449 kts | 238° |
| 2026-04-14 17:04 | 51.56433 | 1.74705 | 25103 ft | 444 kts | 234° |
| 2026-04-14 17:04 | 51.54409 | 1.71004 | 24414 ft | 438 kts | 233° |
| 2026-04-14 17:05 | 51.52389 | 1.67401 | 23718 ft | 432 kts | 232° |
| 2026-04-14 17:05 | 51.50448 | 1.63758 | 22818 ft | 425 kts | 237° |
| 2026-04-14 17:05 | 51.48862 | 1.59890 | 21941 ft | 417 kts | 244° |
| 2026-04-14 17:05 | 51.47608 | 1.55720 | 21062 ft | 410 kts | 251° |
| 2026-04-14 17:06 | 51.46640 | 1.51449 | 20196 ft | 405 kts | 252° |
| 2026-04-14 17:06 | 51.45692 | 1.47217 | 19351 ft | 401 kts | 251° |
| 2026-04-14 17:06 | 51.44741 | 1.43043 | 18542 ft | 396 kts | 251° |
| 2026-04-14 17:06 | 51.43533 | 1.39104 | 17611 ft | 392 kts | 239° |
| 2026-04-14 17:07 | 51.41831 | 1.35711 | 16686 ft | 389 kts | 227° |
| 2026-04-14 17:07 | 51.39749 | 1.32980 | 15779 ft | 385 kts | 217° |
| 2026-04-14 17:07 | 51.37592 | 1.30492 | 15000 ft | 378 kts | 218° |
| 2026-04-14 17:07 | 51.35511 | 1.28060 | 14630 ft | 361 kts | 218° |
| 2026-04-14 17:08 | 51.33533 | 1.25733 | 14539 ft | 358 kts | 218° |
| 2026-04-14 17:08 | 51.31521 | 1.23357 | 14419 ft | 361 kts | 218° |
| 2026-04-14 17:08 | 51.29490 | 1.20960 | 14317 ft | 360 kts | 218° |
| 2026-04-14 17:08 | 51.27474 | 1.18583 | 14220 ft | 360 kts | 218° |
| 2026-04-14 17:09 | 51.25470 | 1.16224 | 14152 ft | 358 kts | 218° |
| 2026-04-14 17:09 | 51.23458 | 1.13859 | 14058 ft | 359 kts | 218° |
| 2026-04-14 17:09 | 51.21446 | 1.11496 | 13669 ft | 358 kts | 218° |
| 2026-04-14 17:09 | 51.19443 | 1.09146 | 12970 ft | 355 kts | 218° |
| 2026-04-14 17:10 | 51.17495 | 1.06864 | 12637 ft | 339 kts | 218° |
| 2026-04-14 17:10 | 51.15581 | 1.04625 | 12561 ft | 350 kts | 217° |
| 2026-04-14 17:10 | 51.13618 | 1.02327 | 12224 ft | 348 kts | 217° |
| 2026-04-14 17:10 | 51.11670 | 1.00052 | 11639 ft | 345 kts | 217° |
| 2026-04-14 17:11 | 51.09763 | 0.97828 | 11016 ft | 336 kts | 217° |
| 2026-04-14 17:11 | 51.07879 | 0.95631 | 10407 ft | 335 kts | 217° |
| 2026-04-14 17:11 | 51.06140 | 0.93185 | 9760 ft | 330 kts | 227° |
| 2026-04-14 17:11 | 51.04843 | 0.90285 | 9113 ft | 322 kts | 239° |
| 2026-04-14 17:12 | 51.03890 | 0.87080 | 8550 ft | 310 kts | 244° |
| 2026-04-14 17:12 | 51.03028 | 0.84087 | 8422 ft | 285 kts | 244° |
| 2026-04-14 17:12 | 51.02236 | 0.81388 | 8294 ft | 264 kts | 243° |
| 2026-04-14 17:12 | 51.01446 | 0.78736 | 8190 ft | 268 kts | 243° |
| 2026-04-14 17:13 | 51.00642 | 0.76059 | 8081 ft | 266 kts | 243° |
| 2026-04-14 17:13 | 50.99844 | 0.73404 | 8058 ft | 266 kts | 243° |
| 2026-04-14 17:13 | 50.99047 | 0.70755 | 8055 ft | 265 kts | 243° |
| 2026-04-14 17:13 | 50.98253 | 0.68113 | 8053 ft | 265 kts | 243° |
| 2026-04-14 17:14 | 50.97465 | 0.65495 | 8044 ft | 267 kts | 243° |
| 2026-04-14 17:14 | 50.96666 | 0.62842 | 8047 ft | 267 kts | 243° |
| 2026-04-14 17:14 | 50.95855 | 0.60153 | 8045 ft | 267 kts | 243° |
| 2026-04-14 17:14 | 50.95067 | 0.57543 | 8042 ft | 265 kts | 243° |
| 2026-04-14 17:15 | 50.94269 | 0.54905 | 8042 ft | 265 kts | 243° |
| 2026-04-14 17:15 | 50.93470 | 0.52262 | 8043 ft | 265 kts | 243° |
| 2026-04-14 17:15 | 50.92670 | 0.49623 | 8046 ft | 266 kts | 243° |
| 2026-04-14 17:15 | 50.91874 | 0.46991 | 7990 ft | 265 kts | 243° |
| 2026-04-14 17:16 | 50.91416 | 0.44178 | 7810 ft | 267 kts | 265° |
| 2026-04-14 17:16 | 50.91719 | 0.41253 | 7643 ft | 272 kts | 285° |
| 2026-04-14 17:16 | 50.92712 | 0.38683 | 7472 ft | 280 kts | 310° |
| 2026-04-14 17:16 | 50.94258 | 0.36783 | 7334 ft | 283 kts | 321° |
| 2026-04-14 17:17 | 50.95827 | 0.34993 | 7163 ft | 282 kts | 321° |
| 2026-04-14 17:17 | 50.97352 | 0.33257 | 7010 ft | 280 kts | 321° |
| 2026-04-14 17:17 | 50.98941 | 0.31453 | 6854 ft | 280 kts | 321° |
| 2026-04-14 17:17 | 51.00507 | 0.29677 | 6514 ft | 280 kts | 320° |
| 2026-04-14 17:18 | 51.02084 | 0.27902 | 6041 ft | 276 kts | 321° |
| 2026-04-14 17:18 | 51.03652 | 0.26146 | 5419 ft | 274 kts | 320° |
| 2026-04-14 17:18 | 51.05213 | 0.24397 | 4821 ft | 274 kts | 320° |
| 2026-04-14 17:18 | 51.06767 | 0.22659 | 4187 ft | 273 kts | 320° |
| 2026-04-14 17:19 | 51.08320 | 0.20918 | 3564 ft | 273 kts | 320° |
| 2026-04-14 17:19 | 51.09856 | 0.19196 | 3223 ft | 264 kts | 320° |
| 2026-04-14 17:19 | 51.11373 | 0.17501 | 3280 ft | 267 kts | 320° |
| 2026-04-14 17:19 | 51.12908 | 0.15780 | 3086 ft | 273 kts | 320° |
| 2026-04-14 17:20 | 51.14459 | 0.14023 | 2943 ft | 273 kts | 320° |
| 2026-04-14 17:20 | 51.16009 | 0.12258 | 2822 ft | 274 kts | 320° |
| 2026-04-14 17:20 | 51.17531 | 0.10464 | 2540 ft | 266 kts | 313° |
| 2026-04-14 17:20 | 51.18602 | 0.08245 | 2271 ft | 241 kts | 289° |
| 2026-04-14 17:21 | 51.18893 | 0.05790 | 2022 ft | 215 kts | 259° |
| 2026-04-14 17:21 | 51.18526 | 0.03621 | 1943 ft | 193 kts | 242° |
| 2026-04-14 17:21 | 51.18020 | 0.01719 | 1909 ft | 178 kts | 240° |
| 2026-04-14 17:21 | 51.17590 | -0.00018 | 1860 ft | 163 kts | 243° |
| 2026-04-14 17:22 | 51.17264 | -0.01631 | 1993 ft | 141 kts | 246° |
| 2026-04-14 17:22 | 51.17032 | -0.03060 | 2010 ft | 134 kts | 247° |
| 2026-04-14 17:22 | 51.16830 | -0.04504 | 1882 ft | 130 kts | 250° |
| 2026-04-14 17:22 | 51.16646 | -0.05904 | 1719 ft | 134 kts | 246° |
| 2026-04-14 17:23 | 51.16443 | -0.07347 | 1521 ft | 132 kts | 249° |
| 2026-04-14 17:23 | 51.16249 | -0.08763 | 1359 ft | 128 kts | 247° |
| 2026-04-14 17:23 | 51.16044 | -0.10194 | 1158 ft | 132 kts | 249° |
| 2026-04-14 17:23 | 51.15845 | -0.11634 | 989 ft | 140 kts | 251° |
| 2026-04-14 17:24 | 51.15640 | -0.13108 | 790 ft | 132 kts | 253° |
| 2026-04-14 17:24 | 51.15450 | -0.14601 | 637 ft | 139 kts | 250° |
| 2026-04-14 17:24 | 51.15236 | -0.16050 | 391 ft | 128 kts | 252° |
| 2026-04-14 17:24 | 51.15039 | -0.17502 | 255 ft | 141 kts | 253° |
| 2026-04-14 17:25 | 51.14824 | -0.18931 | 220 ft | 116 kts | 259° |
| 2026-04-14 17:25 | 51.14709 | -0.19805 | 216 ft | 37 kts | 259° |
| 2026-04-14 17:25 | 51.14727 | -0.20179 | 220 ft | 31 kts | 284° |
| 2026-04-14 17:25 | 51.14753 | -0.20363 | 218 ft | 0 kts | 282° |
| 2026-04-14 17:26 | 51.14753 | -0.20365 | 218 ft | 1 kts | 282° |
| 2026-04-14 17:26 | 51.14760 | -0.20420 | 213 ft | 10 kts | 282° |
| 2026-04-14 17:26 | 51.14778 | -0.20552 | 211 ft | 14 kts | 282° |
| 2026-04-14 17:27 | 51.14838 | -0.20635 | 217 ft | 9 kts | 9° |
| 2026-04-14 17:27 | 51.14874 | -0.20572 | 210 ft | 0 kts | 68° |
| 2026-04-14 17:28 | 51.14879 | -0.20552 | 215 ft | 4 kts | 68° |
| 2026-04-14 17:28 | 51.14894 | -0.20462 | 213 ft | 12 kts | 79° |
| 2026-04-14 17:28 | 51.14911 | -0.20322 | 216 ft | 13 kts | 77° |
| 2026-04-14 17:29 | 51.14933 | -0.20171 | 216 ft | 15 kts | 77° |
| 2026-04-14 17:29 | 51.14957 | -0.19998 | 219 ft | 17 kts | 77° |
| 2026-04-14 17:29 | 51.14984 | -0.19801 | 216 ft | 19 kts | 78° |
| 2026-04-14 17:29 | 51.15013 | -0.19586 | 216 ft | 21 kts | 76° |
| 2026-04-14 17:30 | 51.15047 | -0.19357 | 214 ft | 22 kts | 78° |
| 2026-04-14 17:30 | 51.15080 | -0.19113 | 214 ft | 21 kts | 78° |
| 2026-04-14 17:30 | 51.15105 | -0.18922 | 213 ft | 16 kts | 78° |
| 2026-04-14 17:30 | 51.15132 | -0.18729 | 215 ft | 19 kts | 78° |
| 2026-04-14 17:31 | 51.15161 | -0.18521 | 218 ft | 20 kts | 78° |
| 2026-04-14 17:31 | 51.15185 | -0.18344 | 216 ft | 5 kts | 77° |
| 2026-04-14 17:31 | 51.15185 | -0.18343 | 216 ft | 0 kts | 77° |
| 2026-04-14 17:32 | 51.15186 | -0.18335 | 220 ft | 0 kts | 79° |
| 2026-04-14 17:40 | 51.15186 | -0.18331 | 211 ft | 2 kts | 79° |
| 2026-04-14 17:40 | 51.15190 | -0.18296 | 218 ft | 7 kts | 79° |
| 2026-04-14 17:40 | 51.15202 | -0.18197 | 219 ft | 11 kts | 79° |
| 2026-04-14 17:41 | 51.15223 | -0.18018 | 213 ft | 14 kts | 79° |
| 2026-04-14 17:41 | 51.15244 | -0.17879 | 219 ft | 9 kts | 76° |
| 2026-04-14 17:41 | 51.15248 | -0.17849 | 214 ft | 2 kts | 76° |
| 2026-04-14 17:41 | 51.15251 | -0.17827 | 214 ft | 0 kts | 76° |
| 2026-04-14 17:42 | 51.15276 | -0.17793 | 219 ft | 1 kts | 25° |
| 2026-04-14 17:42 | 51.15297 | -0.17799 | 215 ft | 1 kts | 344° |
| 2026-04-14 17:43 | 51.15323 | -0.17822 | 215 ft | 3 kts | 341° |
| 2026-04-14 17:43 | 51.15328 | -0.17821 | 214 ft | 0 kts | 354° |